sensor_id;sensor_type;location;lat;lon;timestamp;temperature;humidity
39019;DHT22;24786;51.984;5.872;2023-07-13T00:02:09;16.30;99.90
39019;DHT22;24786;51.984;5.872;2023-07-13T00:04:34;16.30;99.90
39019;DHT22;24786;51.984;5.872;2023-07-13T00:07:00;16.30;99.90
39019;DHT22;24786;51.984;5.872;2023-07-13T00:09:25;16.30;99.90
39019;DHT22;24786;51.984;5.872;2023-07-13T00:11:52;16.30;99.90
39019;DHT22;24786;51.984;5.872;2023-07-13T00:14:18;16.30;99.90
39019;DHT22;24786;51.984;5.872;2023-07-13T00:16:44;16.30;99.90
39019;DHT22;24786;51.984;5.872;2023-07-13T00:19:11;16.20;99.90
39019;DHT22;24786;51.984;5.872;2023-07-13T00:21:37;16.30;99.90
39019;DHT22;24786;51.984;5.872;2023-07-13T00:24:02;16.30;99.90
39019;DHT22;24786;51.984;5.872;2023-07-13T00:26:28;16.30;99.90
39019;DHT22;24786;51.984;5.872;2023-07-13T00:28:54;16.30;99.90
39019;DHT22;24786;51.984;5.872;2023-07-13T00:31:19;16.30;99.90
39019;DHT22;24786;51.984;5.872;2023-07-13T00:33:45;16.20;99.90
39019;DHT22;24786;51.984;5.872;2023-07-13T00:36:10;16.20;99.90
39019;DHT22;24786;51.984;5.872;2023-07-13T00:38:36;16.20;99.90
39019;DHT22;24786;51.984;5.872;2023-07-13T00:41:03;16.10;99.90
39019;DHT22;24786;51.984;5.872;2023-07-13T00:43:29;16.10;99.90
39019;DHT22;24786;51.984;5.872;2023-07-13T00:48:24;16.00;99.90
39019;DHT22;24786;51.984;5.872;2023-07-13T00:50:52;16.00;99.90
39019;DHT22;24786;51.984;5.872;2023-07-13T00:53:19;16.00;99.90
39019;DHT22;24786;51.984;5.872;2023-07-13T00:55:45;16.00;99.90
39019;DHT22;24786;51.984;5.872;2023-07-13T00:58:11;15.90;99.90
39019;DHT22;24786;51.984;5.872;2023-07-13T01:00:37;15.90;99.90
39019;DHT22;24786;51.984;5.872;2023-07-13T01:03:03;15.90;99.90
39019;DHT22;24786;51.984;5.872;2023-07-13T01:05:30;15.90;99.90
39019;DHT22;24786;51.984;5.872;2023-07-13T01:07:57;15.80;99.90
39019;DHT22;24786;51.984;5.872;2023-07-13T01:10:23;15.80;99.90
39019;DHT22;24786;51.984;5.872;2023-07-13T01:12:49;15.80;99.90
39019;DHT22;24786;51.984;5.872;2023-07-13T01:15:33;15.80;99.90
39019;DHT22;24786;51.984;5.872;2023-07-13T01:17:59;15.80;99.90
39019;DHT22;24786;51.984;5.872;2023-07-13T01:20:25;15.80;99.90
39019;DHT22;24786;51.984;5.872;2023-07-13T01:22:51;15.70;99.90
39019;DHT22;24786;51.984;5.872;2023-07-13T01:25:16;15.70;99.90
39019;DHT22;24786;51.984;5.872;2023-07-13T01:27:42;15.70;99.90
39019;DHT22;24786;51.984;5.872;2023-07-13T01:30:08;15.60;99.90
39019;DHT22;24786;51.984;5.872;2023-07-13T01:32:34;15.60;99.90
39019;DHT22;24786;51.984;5.872;2023-07-13T01:35:00;15.60;99.90
39019;DHT22;24786;51.984;5.872;2023-07-13T01:37:26;15.60;99.90
39019;DHT22;24786;51.984;5.872;2023-07-13T01:39:51;15.60;99.90
39019;DHT22;24786;51.984;5.872;2023-07-13T01:42:17;15.60;99.90
39019;DHT22;24786;51.984;5.872;2023-07-13T01:44:43;15.60;99.90
39019;DHT22;24786;51.984;5.872;2023-07-13T01:47:09;15.60;99.90
39019;DHT22;24786;51.984;5.872;2023-07-13T01:49:35;15.50;99.90
39019;DHT22;24786;51.984;5.872;2023-07-13T01:52:00;15.50;99.90
39019;DHT22;24786;51.984;5.872;2023-07-13T01:54:26;15.50;99.90
39019;DHT22;24786;51.984;5.872;2023-07-13T01:56:51;15.50;99.90
39019;DHT22;24786;51.984;5.872;2023-07-13T01:59:17;15.50;99.90
39019;DHT22;24786;51.984;5.872;2023-07-13T02:01:42;15.50;99.90
39019;DHT22;24786;51.984;5.872;2023-07-13T02:04:08;15.50;99.90
39019;DHT22;24786;51.984;5.872;2023-07-13T02:06:33;15.40;99.90
39019;DHT22;24786;51.984;5.872;2023-07-13T02:08:59;15.40;99.90
39019;DHT22;24786;51.984;5.872;2023-07-13T02:11:24;15.40;99.90
39019;DHT22;24786;51.984;5.872;2023-07-13T02:13:50;15.40;99.90
39019;DHT22;24786;51.984;5.872;2023-07-13T02:16:16;15.40;99.90
39019;DHT22;24786;51.984;5.872;2023-07-13T02:18:41;15.40;99.90
39019;DHT22;24786;51.984;5.872;2023-07-13T02:21:07;15.40;99.90
39019;DHT22;24786;51.984;5.872;2023-07-13T02:23:32;15.30;99.90
39019;DHT22;24786;51.984;5.872;2023-07-13T02:25:59;15.30;99.90
39019;DHT22;24786;51.984;5.872;2023-07-13T02:28:24;15.30;99.90
39019;DHT22;24786;51.984;5.872;2023-07-13T02:30:50;15.30;99.90
39019;DHT22;24786;51.984;5.872;2023-07-13T02:33:16;15.30;99.90
39019;DHT22;24786;51.984;5.872;2023-07-13T02:35:41;15.20;99.90
39019;DHT22;24786;51.984;5.872;2023-07-13T02:38:07;15.20;99.90
39019;DHT22;24786;51.984;5.872;2023-07-13T02:40:34;15.20;99.90
39019;DHT22;24786;51.984;5.872;2023-07-13T02:43:01;15.20;99.90
39019;DHT22;24786;51.984;5.872;2023-07-13T02:45:26;15.20;99.90
39019;DHT22;24786;51.984;5.872;2023-07-13T02:47:52;15.20;99.90
39019;DHT22;24786;51.984;5.872;2023-07-13T02:50:17;15.10;99.90
39019;DHT22;24786;51.984;5.872;2023-07-13T02:52:43;15.20;99.90
39019;DHT22;24786;51.984;5.872;2023-07-13T02:55:08;15.10;99.90
39019;DHT22;24786;51.984;5.872;2023-07-13T02:57:34;15.10;99.90
39019;DHT22;24786;51.984;5.872;2023-07-13T03:00:00;15.10;99.90
39019;DHT22;24786;51.984;5.872;2023-07-13T03:02:25;15.00;99.90
39019;DHT22;24786;51.984;5.872;2023-07-13T03:04:54;15.00;99.90
39019;DHT22;24786;51.984;5.872;2023-07-13T03:07:20;15.00;99.90
39019;DHT22;24786;51.984;5.872;2023-07-13T03:09:45;15.00;99.90
39019;DHT22;24786;51.984;5.872;2023-07-13T03:12:11;14.90;99.90
39019;DHT22;24786;51.984;5.872;2023-07-13T03:14:36;14.90;99.90
39019;DHT22;24786;51.984;5.872;2023-07-13T03:17:02;14.90;99.90
39019;DHT22;24786;51.984;5.872;2023-07-13T03:19:28;14.80;99.90
39019;DHT22;24786;51.984;5.872;2023-07-13T03:21:53;14.80;99.90
39019;DHT22;24786;51.984;5.872;2023-07-13T03:24:19;14.80;99.90
39019;DHT22;24786;51.984;5.872;2023-07-13T03:26:45;14.80;99.90
39019;DHT22;24786;51.984;5.872;2023-07-13T03:29:11;14.80;99.90
39019;DHT22;24786;51.984;5.872;2023-07-13T03:31:37;14.80;99.90
39019;DHT22;24786;51.984;5.872;2023-07-13T03:34:02;14.80;99.90
39019;DHT22;24786;51.984;5.872;2023-07-13T03:36:29;14.80;99.90
39019;DHT22;24786;51.984;5.872;2023-07-13T03:38:58;14.80;99.90
39019;DHT22;24786;51.984;5.872;2023-07-13T03:41:24;14.80;99.90
39019;DHT22;24786;51.984;5.872;2023-07-13T03:43:50;14.70;99.90
39019;DHT22;24786;51.984;5.872;2023-07-13T03:46:16;14.70;99.90
39019;DHT22;24786;51.984;5.872;2023-07-13T03:48:42;14.70;99.90
39019;DHT22;24786;51.984;5.872;2023-07-13T03:51:09;14.70;99.90
39019;DHT22;24786;51.984;5.872;2023-07-13T03:53:38;14.70;99.90
39019;DHT22;24786;51.984;5.872;2023-07-13T03:56:03;14.70;99.90
39019;DHT22;24786;51.984;5.872;2023-07-13T03:58:30;14.70;99.90
39019;DHT22;24786;51.984;5.872;2023-07-13T04:00:57;14.70;99.90
39019;DHT22;24786;51.984;5.872;2023-07-13T04:03:23;14.70;99.90
39019;DHT22;24786;51.984;5.872;2023-07-13T04:05:49;14.70;99.90
39019;DHT22;24786;51.984;5.872;2023-07-13T04:08:14;14.70;99.90
39019;DHT22;24786;51.984;5.872;2023-07-13T04:10:40;14.70;99.90
39019;DHT22;24786;51.984;5.872;2023-07-13T04:13:06;14.70;99.90
39019;DHT22;24786;51.984;5.872;2023-07-13T04:15:32;14.70;99.90
39019;DHT22;24786;51.984;5.872;2023-07-13T04:17:57;14.70;99.90
39019;DHT22;24786;51.984;5.872;2023-07-13T04:20:24;14.70;99.90
39019;DHT22;24786;51.984;5.872;2023-07-13T04:22:49;14.70;99.90
39019;DHT22;24786;51.984;5.872;2023-07-13T04:25:15;14.70;99.90
39019;DHT22;24786;51.984;5.872;2023-07-13T04:27:41;14.80;99.90
39019;DHT22;24786;51.984;5.872;2023-07-13T04:30:06;14.80;99.90
39019;DHT22;24786;51.984;5.872;2023-07-13T04:32:32;14.80;99.90
39019;DHT22;24786;51.984;5.872;2023-07-13T04:34:58;14.90;99.90
39019;DHT22;24786;51.984;5.872;2023-07-13T04:37:25;15.00;99.90
39019;DHT22;24786;51.984;5.872;2023-07-13T04:39:51;15.00;99.90
39019;DHT22;24786;51.984;5.872;2023-07-13T04:42:16;15.10;99.90
39019;DHT22;24786;51.984;5.872;2023-07-13T04:44:46;15.10;99.90
39019;DHT22;24786;51.984;5.872;2023-07-13T04:47:12;15.10;99.90
39019;DHT22;24786;51.984;5.872;2023-07-13T04:49:38;15.20;99.90
39019;DHT22;24786;51.984;5.872;2023-07-13T04:52:03;15.20;99.90
39019;DHT22;24786;51.984;5.872;2023-07-13T04:54:29;15.30;99.90
39019;DHT22;24786;51.984;5.872;2023-07-13T04:56:55;15.30;99.90
39019;DHT22;24786;51.984;5.872;2023-07-13T04:59:20;15.30;99.90
39019;DHT22;24786;51.984;5.872;2023-07-13T05:01:45;15.40;99.90
39019;DHT22;24786;51.984;5.872;2023-07-13T05:04:11;15.50;99.90
39019;DHT22;24786;51.984;5.872;2023-07-13T05:06:36;15.40;99.90
39019;DHT22;24786;51.984;5.872;2023-07-13T05:09:02;15.50;99.90
39019;DHT22;24786;51.984;5.872;2023-07-13T05:11:28;15.50;99.90
39019;DHT22;24786;51.984;5.872;2023-07-13T05:13:54;15.50;99.90
39019;DHT22;24786;51.984;5.872;2023-07-13T05:16:19;15.60;99.90
39019;DHT22;24786;51.984;5.872;2023-07-13T05:18:45;15.60;99.90
39019;DHT22;24786;51.984;5.872;2023-07-13T05:21:10;15.60;99.90
39019;DHT22;24786;51.984;5.872;2023-07-13T05:23:36;15.70;99.90
39019;DHT22;24786;51.984;5.872;2023-07-13T05:26:02;15.70;99.90
39019;DHT22;24786;51.984;5.872;2023-07-13T05:28:30;15.70;99.90
39019;DHT22;24786;51.984;5.872;2023-07-13T05:30:55;15.70;99.90
39019;DHT22;24786;51.984;5.872;2023-07-13T05:33:21;15.70;99.90
39019;DHT22;24786;51.984;5.872;2023-07-13T05:35:46;15.70;99.90
39019;DHT22;24786;51.984;5.872;2023-07-13T05:38:12;15.70;99.90
39019;DHT22;24786;51.984;5.872;2023-07-13T05:40:38;15.80;99.90
39019;DHT22;24786;51.984;5.872;2023-07-13T05:43:03;15.80;99.90
39019;DHT22;24786;51.984;5.872;2023-07-13T05:45:29;15.80;99.90
39019;DHT22;24786;51.984;5.872;2023-07-13T05:47:55;15.90;99.90
39019;DHT22;24786;51.984;5.872;2023-07-13T05:50:20;15.90;99.90
39019;DHT22;24786;51.984;5.872;2023-07-13T05:52:46;16.00;99.90
39019;DHT22;24786;51.984;5.872;2023-07-13T05:55:12;16.00;99.90
39019;DHT22;24786;51.984;5.872;2023-07-13T05:57:38;16.10;99.90
39019;DHT22;24786;51.984;5.872;2023-07-13T06:00:04;16.10;99.90
39019;DHT22;24786;51.984;5.872;2023-07-13T06:02:30;16.10;99.90
39019;DHT22;24786;51.984;5.872;2023-07-13T06:04:55;16.20;99.90
39019;DHT22;24786;51.984;5.872;2023-07-13T06:07:21;16.20;99.90
39019;DHT22;24786;51.984;5.872;2023-07-13T06:09:47;16.20;99.90
39019;DHT22;24786;51.984;5.872;2023-07-13T06:12:12;16.30;99.90
39019;DHT22;24786;51.984;5.872;2023-07-13T06:14:38;16.30;99.90
39019;DHT22;24786;51.984;5.872;2023-07-13T06:17:03;16.30;99.90
39019;DHT22;24786;51.984;5.872;2023-07-13T06:19:29;16.40;99.90
39019;DHT22;24786;51.984;5.872;2023-07-13T06:21:54;16.50;99.90
39019;DHT22;24786;51.984;5.872;2023-07-13T06:24:20;16.60;99.90
39019;DHT22;24786;51.984;5.872;2023-07-13T06:26:45;16.60;99.90
39019;DHT22;24786;51.984;5.872;2023-07-13T06:29:11;16.70;99.90
39019;DHT22;24786;51.984;5.872;2023-07-13T06:31:36;16.80;99.90
39019;DHT22;24786;51.984;5.872;2023-07-13T06:34:02;16.80;99.90
39019;DHT22;24786;51.984;5.872;2023-07-13T06:36:27;16.90;99.90
39019;DHT22;24786;51.984;5.872;2023-07-13T06:38:53;16.90;99.90
39019;DHT22;24786;51.984;5.872;2023-07-13T06:41:19;17.10;99.90
39019;DHT22;24786;51.984;5.872;2023-07-13T06:43:44;17.20;99.90
39019;DHT22;24786;51.984;5.872;2023-07-13T06:46:10;17.40;99.90
39019;DHT22;24786;51.984;5.872;2023-07-13T06:48:35;17.50;99.90
39019;DHT22;24786;51.984;5.872;2023-07-13T06:51:01;17.50;99.90
39019;DHT22;24786;51.984;5.872;2023-07-13T06:53:27;17.60;99.90
39019;DHT22;24786;51.984;5.872;2023-07-13T06:55:54;17.70;99.90
39019;DHT22;24786;51.984;5.872;2023-07-13T06:58:19;17.70;99.90
39019;DHT22;24786;51.984;5.872;2023-07-13T07:00:45;17.70;99.90
39019;DHT22;24786;51.984;5.872;2023-07-13T07:03:11;17.80;99.90
39019;DHT22;24786;51.984;5.872;2023-07-13T07:05:36;17.80;99.90
39019;DHT22;24786;51.984;5.872;2023-07-13T07:08:02;17.90;99.90
39019;DHT22;24786;51.984;5.872;2023-07-13T07:10:29;18.00;99.90
39019;DHT22;24786;51.984;5.872;2023-07-13T07:12:55;18.20;99.90
39019;DHT22;24786;51.984;5.872;2023-07-13T07:15:20;18.20;99.90
39019;DHT22;24786;51.984;5.872;2023-07-13T07:17:46;18.30;99.90
39019;DHT22;24786;51.984;5.872;2023-07-13T07:20:14;18.30;99.90
39019;DHT22;24786;51.984;5.872;2023-07-13T07:22:42;18.30;99.90
39019;DHT22;24786;51.984;5.872;2023-07-13T07:25:08;18.20;99.90
39019;DHT22;24786;51.984;5.872;2023-07-13T07:27:33;18.20;99.90
39019;DHT22;24786;51.984;5.872;2023-07-13T07:29:59;18.20;99.90
39019;DHT22;24786;51.984;5.872;2023-07-13T07:32:25;18.20;99.90
39019;DHT22;24786;51.984;5.872;2023-07-13T07:34:50;18.20;99.90
39019;DHT22;24786;51.984;5.872;2023-07-13T07:37:21;18.20;99.90
39019;DHT22;24786;51.984;5.872;2023-07-13T07:39:47;18.20;99.90
39019;DHT22;24786;51.984;5.872;2023-07-13T07:42:12;18.30;99.90
39019;DHT22;24786;51.984;5.872;2023-07-13T07:44:38;18.30;99.90
39019;DHT22;24786;51.984;5.872;2023-07-13T07:47:03;18.50;99.90
39019;DHT22;24786;51.984;5.872;2023-07-13T07:49:32;18.60;99.90
39019;DHT22;24786;51.984;5.872;2023-07-13T07:52:05;18.70;99.90
39019;DHT22;24786;51.984;5.872;2023-07-13T07:54:31;18.70;99.90
39019;DHT22;24786;51.984;5.872;2023-07-13T07:56:56;18.80;99.90
39019;DHT22;24786;51.984;5.872;2023-07-13T07:59:22;18.80;99.90
39019;DHT22;24786;51.984;5.872;2023-07-13T08:01:47;18.70;99.90
39019;DHT22;24786;51.984;5.872;2023-07-13T08:04:16;18.80;99.90
39019;DHT22;24786;51.984;5.872;2023-07-13T08:06:41;18.90;99.90
39019;DHT22;24786;51.984;5.872;2023-07-13T08:09:07;19.00;99.90
39019;DHT22;24786;51.984;5.872;2023-07-13T08:11:33;19.20;99.90
39019;DHT22;24786;51.984;5.872;2023-07-13T08:13:59;19.40;99.90
39019;DHT22;24786;51.984;5.872;2023-07-13T08:16:24;19.60;99.90
39019;DHT22;24786;51.984;5.872;2023-07-13T08:18:50;19.60;99.90
39019;DHT22;24786;51.984;5.872;2023-07-13T08:21:15;19.70;99.90
39019;DHT22;24786;51.984;5.872;2023-07-13T08:23:41;19.80;99.90
39019;DHT22;24786;51.984;5.872;2023-07-13T08:26:07;19.80;99.90
39019;DHT22;24786;51.984;5.872;2023-07-13T08:28:33;19.70;99.90
39019;DHT22;24786;51.984;5.872;2023-07-13T08:31:06;19.90;99.90
39019;DHT22;24786;51.984;5.872;2023-07-13T08:33:33;20.00;99.90
39019;DHT22;24786;51.984;5.872;2023-07-13T08:35:59;20.30;99.90
39019;DHT22;24786;51.984;5.872;2023-07-13T08:38:25;20.50;99.90
39019;DHT22;24786;51.984;5.872;2023-07-13T08:40:55;20.70;99.90
39019;DHT22;24786;51.984;5.872;2023-07-13T08:43:30;20.80;99.90
39019;DHT22;24786;51.984;5.872;2023-07-13T08:48:49;20.80;99.90
39019;DHT22;24786;51.984;5.872;2023-07-13T08:53:43;20.30;99.90
39019;DHT22;24786;51.984;5.872;2023-07-13T08:56:11;20.10;99.90
39019;DHT22;24786;51.984;5.872;2023-07-13T08:58:38;19.80;99.90
39019;DHT22;24786;51.984;5.872;2023-07-13T09:03:30;19.90;99.90
39019;DHT22;24786;51.984;5.872;2023-07-13T09:05:59;20.10;99.90
39019;DHT22;24786;51.984;5.872;2023-07-13T09:13:37;20.70;99.90
39019;DHT22;24786;51.984;5.872;2023-07-13T09:16:05;20.90;99.90
39019;DHT22;24786;51.984;5.872;2023-07-13T09:23:28;21.40;99.90
39019;DHT22;24786;51.984;5.872;2023-07-13T09:26:05;21.40;99.90
39019;DHT22;24786;51.984;5.872;2023-07-13T09:28:34;21.40;99.90
39019;DHT22;24786;51.984;5.872;2023-07-13T09:34:00;21.10;99.90
39019;DHT22;24786;51.984;5.872;2023-07-13T09:36:30;20.70;99.90
39019;DHT22;24786;51.984;5.872;2023-07-13T09:46:34;19.50;99.90
39019;DHT22;24786;51.984;5.872;2023-07-13T09:49:00;19.40;99.90
39019;DHT22;24786;51.984;5.872;2023-07-13T09:51:26;19.30;99.90
39019;DHT22;24786;51.984;5.872;2023-07-13T09:53:54;19.40;99.90
39019;DHT22;24786;51.984;5.872;2023-07-13T09:56:23;19.40;99.90
39019;DHT22;24786;51.984;5.872;2023-07-13T09:58:49;19.50;99.90
39019;DHT22;24786;51.984;5.872;2023-07-13T10:01:15;19.60;99.90
39019;DHT22;24786;51.984;5.872;2023-07-13T10:03:51;19.60;99.90
39019;DHT22;24786;51.984;5.872;2023-07-13T10:06:18;19.60;99.90
39019;DHT22;24786;51.984;5.872;2023-07-13T10:08:57;19.60;99.90
39019;DHT22;24786;51.984;5.872;2023-07-13T10:11:27;19.70;99.90
39019;DHT22;24786;51.984;5.872;2023-07-13T10:14:13;19.90;99.90
39019;DHT22;24786;51.984;5.872;2023-07-13T10:16:48;20.30;99.90
39019;DHT22;24786;51.984;5.872;2023-07-13T10:19:36;20.40;99.90
39019;DHT22;24786;51.984;5.872;2023-07-13T10:22:02;20.60;99.90
39019;DHT22;24786;51.984;5.872;2023-07-13T10:24:36;20.80;99.90
39019;DHT22;24786;51.984;5.872;2023-07-13T10:27:09;21.00;99.90
39019;DHT22;24786;51.984;5.872;2023-07-13T10:29:39;21.20;99.90
39019;DHT22;24786;51.984;5.872;2023-07-13T10:32:10;21.50;99.90
39019;DHT22;24786;51.984;5.872;2023-07-13T10:34:36;21.60;99.90
39019;DHT22;24786;51.984;5.872;2023-07-13T10:37:02;21.60;99.90
39019;DHT22;24786;51.984;5.872;2023-07-13T10:39:31;21.50;99.90
39019;DHT22;24786;51.984;5.872;2023-07-13T10:42:00;21.40;99.90
39019;DHT22;24786;51.984;5.872;2023-07-13T10:44:30;21.20;99.90
39019;DHT22;24786;51.984;5.872;2023-07-13T10:47:15;21.10;99.90
39019;DHT22;24786;51.984;5.872;2023-07-13T10:49:43;20.80;99.90
39019;DHT22;24786;51.984;5.872;2023-07-13T10:54:53;20.20;99.90
39019;DHT22;24786;51.984;5.872;2023-07-13T10:57:19;20.10;99.90
39019;DHT22;24786;51.984;5.872;2023-07-13T10:59:46;20.30;99.90
39019;DHT22;24786;51.984;5.872;2023-07-13T11:02:26;20.60;99.90
39019;DHT22;24786;51.984;5.872;2023-07-13T11:04:52;20.80;99.90
39019;DHT22;24786;51.984;5.872;2023-07-13T11:07:22;21.20;99.90
39019;DHT22;24786;51.984;5.872;2023-07-13T11:09:49;21.30;99.90
39019;DHT22;24786;51.984;5.872;2023-07-13T11:15:00;21.40;99.90
39019;DHT22;24786;51.984;5.872;2023-07-13T11:25:25;21.10;99.90
39019;DHT22;24786;51.984;5.872;2023-07-13T11:35:34;20.90;99.90
39019;DHT22;24786;51.984;5.872;2023-07-13T11:38:00;21.30;99.90
39019;DHT22;24786;51.984;5.872;2023-07-13T11:40:26;21.60;99.90
39019;DHT22;24786;51.984;5.872;2023-07-13T11:42:58;21.90;99.90
39019;DHT22;24786;51.984;5.872;2023-07-13T11:45:24;22.10;99.90
39019;DHT22;24786;51.984;5.872;2023-07-13T11:47:50;22.40;99.90
39019;DHT22;24786;51.984;5.872;2023-07-13T11:50:19;22.50;99.90
39019;DHT22;24786;51.984;5.872;2023-07-13T11:52:45;22.80;99.90
39019;DHT22;24786;51.984;5.872;2023-07-13T11:55:14;23.00;99.90
39019;DHT22;24786;51.984;5.872;2023-07-13T11:57:45;22.90;99.90
39019;DHT22;24786;51.984;5.872;2023-07-13T12:00:12;22.80;99.90
39019;DHT22;24786;51.984;5.872;2023-07-13T12:02:40;22.60;99.90
39019;DHT22;24786;51.984;5.872;2023-07-13T12:05:10;22.40;99.90
39019;DHT22;24786;51.984;5.872;2023-07-13T12:07:37;22.20;99.90
39019;DHT22;24786;51.984;5.872;2023-07-13T12:10:26;21.90;99.90
39019;DHT22;24786;51.984;5.872;2023-07-13T12:12:53;21.70;99.90
39019;DHT22;24786;51.984;5.872;2023-07-13T12:15:20;21.60;99.90
39019;DHT22;24786;51.984;5.872;2023-07-13T12:17:47;21.60;99.90
39019;DHT22;24786;51.984;5.872;2023-07-13T12:20:21;21.90;99.90
39019;DHT22;24786;51.984;5.872;2023-07-13T12:22:47;22.20;99.90
39019;DHT22;24786;51.984;5.872;2023-07-13T12:25:13;22.40;99.90
39019;DHT22;24786;51.984;5.872;2023-07-13T12:27:39;22.60;99.90
39019;DHT22;24786;51.984;5.872;2023-07-13T12:30:15;22.70;99.90
39019;DHT22;24786;51.984;5.872;2023-07-13T12:33:07;22.80;99.90
39019;DHT22;24786;51.984;5.872;2023-07-13T12:35:38;22.90;99.90
39019;DHT22;24786;51.984;5.872;2023-07-13T12:38:07;23.10;99.90
39019;DHT22;24786;51.984;5.872;2023-07-13T12:40:34;23.20;99.90
39019;DHT22;24786;51.984;5.872;2023-07-13T12:43:00;23.10;99.90
39019;DHT22;24786;51.984;5.872;2023-07-13T12:45:27;22.90;99.90
39019;DHT22;24786;51.984;5.872;2023-07-13T12:47:57;22.70;99.90
39019;DHT22;24786;51.984;5.872;2023-07-13T12:50:29;22.40;99.90
39019;DHT22;24786;51.984;5.872;2023-07-13T12:52:59;22.20;99.90
39019;DHT22;24786;51.984;5.872;2023-07-13T12:55:26;21.90;99.90
39019;DHT22;24786;51.984;5.872;2023-07-13T12:57:56;21.80;99.90
39019;DHT22;24786;51.984;5.872;2023-07-13T13:02:53;21.60;99.90
39019;DHT22;24786;51.984;5.872;2023-07-13T13:05:18;21.50;99.90
39019;DHT22;24786;51.984;5.872;2023-07-13T13:07:49;21.50;99.90
39019;DHT22;24786;51.984;5.872;2023-07-13T13:10:14;21.60;99.90
39019;DHT22;24786;51.984;5.872;2023-07-13T13:12:40;21.90;99.90
39019;DHT22;24786;51.984;5.872;2023-07-13T13:15:09;22.00;99.90
39019;DHT22;24786;51.984;5.872;2023-07-13T13:17:36;22.20;99.90
39019;DHT22;24786;51.984;5.872;2023-07-13T13:20:05;22.30;99.90
39019;DHT22;24786;51.984;5.872;2023-07-13T13:22:31;22.20;99.90
39019;DHT22;24786;51.984;5.872;2023-07-13T13:24:57;22.40;99.90
39019;DHT22;24786;51.984;5.872;2023-07-13T13:27:23;22.70;99.90
39019;DHT22;24786;51.984;5.872;2023-07-13T13:29:51;22.90;99.90
39019;DHT22;24786;51.984;5.872;2023-07-13T13:32:17;23.10;99.90
39019;DHT22;24786;51.984;5.872;2023-07-13T13:34:44;23.30;99.30
39019;DHT22;24786;51.984;5.872;2023-07-13T13:37:18;23.40;99.70
39019;DHT22;24786;51.984;5.872;2023-07-13T13:39:44;23.50;99.90
39019;DHT22;24786;51.984;5.872;2023-07-13T13:42:10;23.60;99.90
39019;DHT22;24786;51.984;5.872;2023-07-13T13:44:35;23.60;99.40
39019;DHT22;24786;51.984;5.872;2023-07-13T13:47:01;23.70;99.20
39019;DHT22;24786;51.984;5.872;2023-07-13T13:49:27;23.80;98.90
39019;DHT22;24786;51.984;5.872;2023-07-13T13:51:53;23.80;98.60
39019;DHT22;24786;51.984;5.872;2023-07-13T13:54:19;23.80;98.80
39019;DHT22;24786;51.984;5.872;2023-07-13T13:56:46;23.90;98.30
39019;DHT22;24786;51.984;5.872;2023-07-13T13:59:12;24.00;96.90
39019;DHT22;24786;51.984;5.872;2023-07-13T14:01:39;24.00;97.30
39019;DHT22;24786;51.984;5.872;2023-07-13T14:04:05;24.10;97.40
39019;DHT22;24786;51.984;5.872;2023-07-13T14:06:31;24.20;97.30
39019;DHT22;24786;51.984;5.872;2023-07-13T14:09:00;24.30;96.90
39019;DHT22;24786;51.984;5.872;2023-07-13T14:11:25;24.30;97.10
39019;DHT22;24786;51.984;5.872;2023-07-13T14:13:52;24.30;96.50
39019;DHT22;24786;51.984;5.872;2023-07-13T14:16:19;24.00;96.30
39019;DHT22;24786;51.984;5.872;2023-07-13T14:18:45;23.90;97.00
39019;DHT22;24786;51.984;5.872;2023-07-13T14:21:15;23.90;96.50
39019;DHT22;24786;51.984;5.872;2023-07-13T14:23:41;23.80;96.30
39019;DHT22;24786;51.984;5.872;2023-07-13T14:26:10;23.70;96.40
39019;DHT22;24786;51.984;5.872;2023-07-13T14:28:36;23.70;96.90
39019;DHT22;24786;51.984;5.872;2023-07-13T14:31:04;23.90;96.90
39019;DHT22;24786;51.984;5.872;2023-07-13T14:33:29;23.90;96.80
39019;DHT22;24786;51.984;5.872;2023-07-13T14:35:55;23.90;97.00
39019;DHT22;24786;51.984;5.872;2023-07-13T14:38:20;23.70;97.10
39019;DHT22;24786;51.984;5.872;2023-07-13T14:40:46;23.60;96.60
39019;DHT22;24786;51.984;5.872;2023-07-13T14:43:12;23.40;97.00
39019;DHT22;24786;51.984;5.872;2023-07-13T14:45:46;23.30;96.80
39019;DHT22;24786;51.984;5.872;2023-07-13T14:48:16;23.20;96.60
39019;DHT22;24786;51.984;5.872;2023-07-13T14:50:42;23.20;96.50
39019;DHT22;24786;51.984;5.872;2023-07-13T14:53:09;23.10;96.50
39019;DHT22;24786;51.984;5.872;2023-07-13T14:55:35;23.10;96.60
39019;DHT22;24786;51.984;5.872;2023-07-13T14:58:01;23.10;96.40
39019;DHT22;24786;51.984;5.872;2023-07-13T15:00:26;23.10;96.70
39019;DHT22;24786;51.984;5.872;2023-07-13T15:02:53;23.10;96.90
39019;DHT22;24786;51.984;5.872;2023-07-13T15:05:21;23.10;97.10
39019;DHT22;24786;51.984;5.872;2023-07-13T15:07:48;23.00;97.10
39019;DHT22;24786;51.984;5.872;2023-07-13T15:10:16;22.90;96.90
39019;DHT22;24786;51.984;5.872;2023-07-13T15:12:42;22.80;97.00
39019;DHT22;24786;51.984;5.872;2023-07-13T15:15:08;22.80;96.80
39019;DHT22;24786;51.984;5.872;2023-07-13T15:20:06;22.70;97.10
39019;DHT22;24786;51.984;5.872;2023-07-13T15:22:36;22.60;97.00
39019;DHT22;24786;51.984;5.872;2023-07-13T15:25:02;22.60;97.00
39019;DHT22;24786;51.984;5.872;2023-07-13T15:27:29;22.60;97.20
39019;DHT22;24786;51.984;5.872;2023-07-13T15:29:54;22.60;97.20
39019;DHT22;24786;51.984;5.872;2023-07-13T15:32:20;22.50;97.40
39019;DHT22;24786;51.984;5.872;2023-07-13T15:34:45;22.50;97.60
39019;DHT22;24786;51.984;5.872;2023-07-13T15:37:14;22.50;98.00
39019;DHT22;24786;51.984;5.872;2023-07-13T15:39:41;22.40;97.80
39019;DHT22;24786;51.984;5.872;2023-07-13T15:42:12;22.40;98.00
39019;DHT22;24786;51.984;5.872;2023-07-13T15:44:39;22.40;98.00
39019;DHT22;24786;51.984;5.872;2023-07-13T15:47:05;22.30;98.00
39019;DHT22;24786;51.984;5.872;2023-07-13T15:49:32;22.30;98.00
39019;DHT22;24786;51.984;5.872;2023-07-13T15:51:57;22.30;98.00
39019;DHT22;24786;51.984;5.872;2023-07-13T15:54:23;22.30;98.10
39019;DHT22;24786;51.984;5.872;2023-07-13T15:56:53;22.40;98.10
39019;DHT22;24786;51.984;5.872;2023-07-13T15:59:20;22.40;98.00
39019;DHT22;24786;51.984;5.872;2023-07-13T16:01:45;22.40;98.00
39019;DHT22;24786;51.984;5.872;2023-07-13T16:04:12;22.40;98.20
39019;DHT22;24786;51.984;5.872;2023-07-13T16:06:39;22.50;98.30
39019;DHT22;24786;51.984;5.872;2023-07-13T16:09:05;22.70;98.50
39019;DHT22;24786;51.984;5.872;2023-07-13T16:11:35;22.70;98.40
39019;DHT22;24786;51.984;5.872;2023-07-13T16:14:01;22.70;98.80
39019;DHT22;24786;51.984;5.872;2023-07-13T16:16:27;22.60;98.60
39019;DHT22;24786;51.984;5.872;2023-07-13T16:18:54;22.70;98.30
39019;DHT22;24786;51.984;5.872;2023-07-13T16:21:21;22.60;98.20
39019;DHT22;24786;51.984;5.872;2023-07-13T16:23:47;22.50;98.60
39019;DHT22;24786;51.984;5.872;2023-07-13T16:26:28;22.50;98.40